createdAt,value
2023-04-05T00:00:20.473Z,79.51
2023-04-05T00:02:53.100Z,79.58
2023-04-05T00:05:29.623Z,79.55
2023-04-05T00:08:03.098Z,79.71
2023-04-05T00:10:34.572Z,79.66
2023-04-05T00:13:04.379Z,79.56
2023-04-05T00:15:34.424Z,79.76
2023-04-05T00:18:06.940Z,79.78
2023-04-05T00:20:37.598Z,79.67
2023-04-05T00:23:09.734Z,79.73
2023-04-05T00:25:39.602Z,79.80
2023-04-05T00:28:09.584Z,79.69
2023-04-05T00:30:39.493Z,79.91
2023-04-05T00:33:12.178Z,79.78
2023-04-05T00:35:42.026Z,80.01
2023-04-05T00:38:11.852Z,79.96
2023-04-05T00:40:41.860Z,80.17
2023-04-05T00:43:14.162Z,79.96
2023-04-05T00:45:45.257Z,80.14
2023-04-05T00:48:17.890Z,80.15
2023-04-05T00:50:49.354Z,80.13
2023-04-05T00:53:19.654Z,80.00
2023-04-05T00:55:50.978Z,80.16
2023-04-05T00:58:22.463Z,80.07
2023-04-05T01:01:02.379Z,80.21
2023-04-05T01:03:37.328Z,80.26
2023-04-05T01:06:22.340Z,80.17
2023-04-05T01:09:08.696Z,80.21
2023-04-05T01:11:42.270Z,80.23
2023-04-05T01:14:12.130Z,80.30
2023-04-05T01:16:41.950Z,80.16
2023-04-05T01:19:14.595Z,80.30
2023-04-05T01:22:14.354Z,80.29
2023-04-05T01:25:03.150Z,80.26
2023-04-05T01:27:49.753Z,80.21
2023-04-05T01:30:31.372Z,80.43
2023-04-05T01:33:11.568Z,80.33
2023-04-05T01:35:47.717Z,80.27
2023-04-05T01:38:25.470Z,80.37
2023-04-05T01:40:56.397Z,80.33
2023-04-05T01:43:26.308Z,80.27
2023-04-05T01:45:58.768Z,80.24
2023-04-05T01:48:30.129Z,80.34
2023-04-05T01:51:00.053Z,80.37
2023-04-05T01:53:31.274Z,80.26
2023-04-05T01:56:04.175Z,80.49
2023-04-05T01:58:34.070Z,80.28
2023-04-05T02:01:06.674Z,80.44
2023-04-05T02:03:36.643Z,80.53
2023-04-05T02:06:07.908Z,80.65
2023-04-05T02:08:37.789Z,80.57
2023-04-05T02:11:07.717Z,80.48
2023-04-05T02:13:37.701Z,80.63
2023-04-05T02:16:10.145Z,80.58
2023-04-05T02:18:40.490Z,80.75
2023-04-05T02:21:17.474Z,80.63
2023-04-05T02:23:47.323Z,80.57
2023-04-05T02:26:17.211Z,80.75
2023-04-05T02:28:47.421Z,80.91
2023-04-05T02:31:21.444Z,80.78
2023-04-05T02:33:51.375Z,80.83
2023-04-05T02:36:24.932Z,80.96
2023-04-05T02:38:57.595Z,80.94
2023-04-05T02:41:27.598Z,80.94
2023-04-05T02:43:57.442Z,80.89
2023-04-05T02:46:29.890Z,80.98
2023-04-05T02:49:00.034Z,81.18
2023-04-05T02:51:29.851Z,81.13
2023-04-05T02:53:59.695Z,81.06
2023-04-05T02:56:29.524Z,81.35
2023-04-05T02:58:59.610Z,81.16
2023-04-05T03:01:33.128Z,81.32
2023-04-05T03:04:03.909Z,81.42
2023-04-05T03:06:34.223Z,81.52
2023-04-05T03:09:04.913Z,81.41
2023-04-05T03:11:34.776Z,81.33
2023-04-05T03:14:04.613Z,81.52
2023-04-05T03:16:40.199Z,81.53
2023-04-05T03:19:10.257Z,81.64
2023-04-05T03:21:41.329Z,81.70
2023-04-05T03:24:11.619Z,81.60
2023-04-05T03:26:42.326Z,81.64
2023-04-05T03:29:12.232Z,81.72
2023-04-05T03:31:44.762Z,81.75
2023-04-05T03:34:14.752Z,81.77
2023-04-05T03:36:48.420Z,81.77
2023-04-05T03:39:18.254Z,81.80
2023-04-05T03:41:48.101Z,81.77
2023-04-05T03:44:17.949Z,82.01
2023-04-05T03:46:53.566Z,81.96
2023-04-05T03:49:23.410Z,81.94
2023-04-05T03:51:53.300Z,81.97
2023-04-05T03:54:23.113Z,82.01
2023-04-05T03:56:53.020Z,81.93
2023-04-05T03:59:25.858Z,82.04
2023-04-05T04:01:58.410Z,82.00
2023-04-05T04:04:28.475Z,82.29
2023-04-05T04:06:59.230Z,82.26
2023-04-05T04:09:30.826Z,82.17
2023-04-05T04:12:01.263Z,82.39
2023-04-05T04:14:31.263Z,82.43
2023-04-05T04:17:03.886Z,82.40
2023-04-05T04:19:33.914Z,82.60
2023-04-05T04:22:04.647Z,82.54
2023-04-05T04:24:34.565Z,82.69
2023-04-05T04:27:07.083Z,82.67
2023-04-05T04:29:46.828Z,82.84
2023-04-05T04:32:22.807Z,82.88
2023-04-05T04:34:56.114Z,82.84
2023-04-05T04:37:30.589Z,82.95
2023-04-05T04:40:06.724Z,82.97
2023-04-05T04:42:39.396Z,83.09
2023-04-05T04:45:13.302Z,82.89
2023-04-05T04:47:46.221Z,82.94
2023-04-05T04:50:17.254Z,83.06
2023-04-05T04:52:47.183Z,83.15
2023-04-05T04:55:17.158Z,83.13
2023-04-05T04:57:47.208Z,83.15
2023-04-05T05:00:18.451Z,83.20
2023-04-05T05:02:51.471Z,83.36
2023-04-05T05:05:22.924Z,83.34
2023-04-05T05:07:55.333Z,83.36
2023-04-05T05:10:25.136Z,83.33
2023-04-05T05:12:55.026Z,83.36
2023-04-05T05:15:24.941Z,83.52
2023-04-05T05:17:59.432Z,83.56
2023-04-05T05:20:30.377Z,83.38
2023-04-05T05:23:02.654Z,83.69
2023-04-05T05:25:32.619Z,83.91
2023-04-05T05:28:02.531Z,84.08
2023-04-05T05:30:33.734Z,84.09
2023-04-05T05:33:06.280Z,84.23
2023-04-05T05:35:38.264Z,84.55
2023-04-05T05:38:10.221Z,84.61
2023-04-05T05:40:43.512Z,84.57
2023-04-05T05:43:13.589Z,84.50
2023-04-05T05:45:43.420Z,84.69
2023-04-05T05:48:16.346Z,84.92
2023-04-05T05:50:49.049Z,84.96
2023-04-05T05:53:19.117Z,85.02
2023-04-05T05:55:49.001Z,84.86
2023-04-05T05:58:18.950Z,85.04
2023-04-05T06:00:50.722Z,85.28
2023-04-05T06:03:26.604Z,85.33
2023-04-05T06:05:57.279Z,85.30
2023-04-05T06:08:27.937Z,85.17
2023-04-05T06:10:58.684Z,85.16
2023-04-05T06:13:28.497Z,85.02
2023-04-05T06:15:58.333Z,85.24
2023-04-05T06:18:30.807Z,85.45
2023-04-05T06:21:00.665Z,85.38
2023-04-05T06:23:30.593Z,85.60
2023-04-05T06:26:00.570Z,85.50
2023-04-05T06:28:31.843Z,85.56
2023-04-05T06:31:04.498Z,85.39
2023-04-05T06:33:37.032Z,85.35
2023-04-05T06:36:07.340Z,85.48
2023-04-05T06:38:37.219Z,85.45
2023-04-05T06:41:07.457Z,85.52
2023-04-05T06:43:37.393Z,85.60
2023-04-05T06:46:09.059Z,85.62
2023-04-05T06:48:42.492Z,85.70
2023-04-05T06:51:12.617Z,85.68
2023-04-05T06:53:42.489Z,85.73
2023-04-05T06:56:12.648Z,85.65
2023-04-05T06:58:42.640Z,85.77
2023-04-05T07:01:12.612Z,85.75
2023-04-05T07:03:47.403Z,85.70
2023-04-05T07:06:17.390Z,85.55
2023-04-05T07:08:47.243Z,85.34
2023-04-05T07:11:17.114Z,84.87
2023-04-05T07:13:46.923Z,84.75
2023-04-05T07:16:18.432Z,84.51
2023-04-05T07:18:52.187Z,84.28
2023-04-05T07:21:22.008Z,84.11
2023-04-05T07:23:53.879Z,83.89
2023-04-05T07:26:23.703Z,83.53
2023-04-05T07:28:57.488Z,83.38
2023-04-05T07:31:27.686Z,82.81
2023-04-05T07:34:00.480Z,82.36
2023-04-05T07:36:31.005Z,81.99
2023-04-05T07:39:01.499Z,81.54
2023-04-05T07:41:35.651Z,81.24
2023-04-05T07:44:05.575Z,80.92
2023-04-05T07:46:36.226Z,80.71
2023-04-05T07:49:08.781Z,80.75
2023-04-05T07:51:38.704Z,80.67
2023-04-05T07:54:08.834Z,80.61
2023-04-05T07:56:40.273Z,80.58
2023-04-05T07:59:10.460Z,80.40
2023-04-05T08:01:40.995Z,80.22
2023-04-05T08:04:18.388Z,79.85
2023-04-05T08:06:48.728Z,79.31
2023-04-05T08:09:18.589Z,78.85
2023-04-05T08:11:49.001Z,78.35
2023-04-05T08:14:22.023Z,77.91
2023-04-05T08:16:52.225Z,77.57
2023-04-05T08:19:24.753Z,77.35
2023-04-05T08:21:56.388Z,77.02
2023-04-05T08:24:26.452Z,76.88
2023-04-05T08:26:56.563Z,76.50
2023-04-05T08:29:26.593Z,76.19
2023-04-05T08:31:59.123Z,75.92
2023-04-05T08:34:34.701Z,75.71
2023-04-05T08:37:04.620Z,75.48
2023-04-05T08:39:34.500Z,75.17
2023-04-05T08:42:12.288Z,74.82
2023-04-05T08:44:48.070Z,74.29
2023-04-05T08:47:22.093Z,73.56
2023-04-05T08:49:54.608Z,72.93
2023-04-05T08:52:24.579Z,72.20
2023-04-05T08:54:57.254Z,71.84
2023-04-05T08:57:29.959Z,71.53
2023-04-05T09:00:02.262Z,71.02
2023-04-05T09:02:33.018Z,70.55
2023-04-05T09:05:06.975Z,69.87
2023-04-05T09:07:38.406Z,69.51
2023-04-05T09:10:10.268Z,68.91
2023-04-05T09:12:40.553Z,68.36
2023-04-05T09:15:11.404Z,67.94
2023-04-05T09:17:42.512Z,67.68
2023-04-05T09:20:14.997Z,67.51
2023-04-05T09:22:48.055Z,67.36
2023-04-05T09:25:38.516Z,67.08
2023-04-05T09:28:09.117Z,66.65
2023-04-05T09:30:43.098Z,66.25
2023-04-05T09:33:13.296Z,65.87
2023-04-05T09:35:45.906Z,65.66
2023-04-05T09:38:15.819Z,65.59
2023-04-05T09:40:47.381Z,65.53
2023-04-05T09:43:37.768Z,65.36
2023-04-05T09:46:07.799Z,65.27
2023-04-05T09:48:49.574Z,65.40
2023-04-05T09:51:22.292Z,65.06
2023-04-05T09:54:02.620Z,64.74
2023-04-05T09:56:34.468Z,64.65
2023-04-05T09:59:05.141Z,64.50
2023-04-05T10:01:39.922Z,64.37
2023-04-05T10:04:11.385Z,64.24
2023-04-05T10:06:44.951Z,64.19
2023-04-05T10:09:17.689Z,64.08
2023-04-05T10:11:51.747Z,63.86
2023-04-05T10:14:22.679Z,63.47
2023-04-05T10:17:02.369Z,63.57
2023-04-05T10:19:40.006Z,63.34
2023-04-05T10:22:20.965Z,63.10
2023-04-05T10:24:57.695Z,63.05
2023-04-05T10:27:33.738Z,62.81
2023-04-05T10:30:09.445Z,62.54
2023-04-05T10:32:52.218Z,62.16
2023-04-05T10:35:27.455Z,62.03
2023-04-05T10:38:15.000Z,61.81
2023-04-05T10:40:49.487Z,61.52
2023-04-05T10:43:24.718Z,61.61
2023-04-05T10:45:58.307Z,61.35
2023-04-05T10:48:41.107Z,61.34
2023-04-05T10:51:11.098Z,61.15
2023-04-05T10:53:44.465Z,60.95
2023-04-05T10:56:18.323Z,60.88
2023-04-05T10:58:49.679Z,60.99
2023-04-05T11:01:21.852Z,61.06
2023-04-05T11:03:53.999Z,61.09
2023-04-05T11:06:32.446Z,61.04
2023-04-05T11:09:15.608Z,60.68
2023-04-05T11:11:47.060Z,60.55
2023-04-05T11:14:26.001Z,60.59
2023-04-05T11:17:02.124Z,60.61
2023-04-05T11:19:53.274Z,60.41
2023-04-05T11:22:30.402Z,60.17
2023-04-05T11:25:04.795Z,60.08
2023-04-05T11:27:37.805Z,59.88
2023-04-05T11:30:09.483Z,59.83
2023-04-05T11:32:43.590Z,59.93
2023-04-05T11:35:18.020Z,60.10
2023-04-05T11:38:11.067Z,60.19
2023-04-05T11:40:44.201Z,59.89
2023-04-05T11:43:15.230Z,59.54
2023-04-05T11:45:47.250Z,59.53
2023-04-05T11:48:17.286Z,59.71
2023-04-05T11:50:49.644Z,59.77
2023-04-05T11:53:21.504Z,59.67
2023-04-05T11:55:55.651Z,59.57
2023-04-05T11:58:28.736Z,59.62
2023-04-05T12:01:03.101Z,59.51
2023-04-05T12:03:34.358Z,59.46
2023-04-05T12:06:05.610Z,59.33
2023-04-05T12:08:43.624Z,59.05
2023-04-05T12:11:16.038Z,58.96
2023-04-05T12:13:48.404Z,58.83
2023-04-05T12:16:19.127Z,58.97
2023-04-05T12:18:56.275Z,59.03
2023-04-05T12:21:27.664Z,58.98
2023-04-05T12:23:57.629Z,58.78
2023-04-05T12:26:34.434Z,58.88
2023-04-05T12:29:07.449Z,58.73
2023-04-05T12:31:43.569Z,58.89
2023-04-05T12:34:14.431Z,58.70
2023-04-05T12:36:48.861Z,58.55
2023-04-05T12:39:20.134Z,58.16
2023-04-05T12:41:59.917Z,58.24
2023-04-05T12:44:35.470Z,58.19
2023-04-05T12:47:09.448Z,58.11
2023-04-05T12:49:41.133Z,58.19
2023-04-05T12:52:11.837Z,58.12
2023-04-05T12:54:42.036Z,57.89
2023-04-05T12:57:16.872Z,58.08
2023-04-05T12:59:46.709Z,58.02
2023-04-05T13:02:18.180Z,58.00
2023-04-05T13:04:48.071Z,58.03
2023-04-05T13:07:18.635Z,57.98
2023-04-05T13:09:48.490Z,58.00
2023-04-05T13:12:21.027Z,57.96
2023-04-05T13:14:50.826Z,58.06
2023-04-05T13:17:20.640Z,57.98
2023-04-05T13:19:50.472Z,57.75
2023-04-05T13:22:20.333Z,57.97
2023-04-05T13:24:50.161Z,58.25
2023-04-05T13:27:22.921Z,58.54
2023-04-05T13:29:52.839Z,58.69
2023-04-05T13:32:22.741Z,58.72
2023-04-05T13:34:52.571Z,58.73
2023-04-05T13:37:22.614Z,58.71
2023-04-05T13:39:53.179Z,58.74
2023-04-05T13:42:26.187Z,58.66
2023-04-05T13:44:55.988Z,58.66
2023-04-05T13:47:25.915Z,58.54
2023-04-05T13:49:55.795Z,58.49
2023-04-05T13:52:26.144Z,58.17
2023-04-05T13:55:02.169Z,58.07
2023-04-05T13:57:35.994Z,58.12
2023-04-05T14:00:06.626Z,57.96
2023-04-05T14:02:36.938Z,58.08
2023-04-05T14:05:07.959Z,58.17
2023-04-05T14:07:38.640Z,58.34
2023-04-05T14:10:09.258Z,58.14
2023-04-05T14:12:41.787Z,57.72
2023-04-05T14:15:12.203Z,57.40
2023-04-05T14:17:42.113Z,57.39
2023-04-05T14:20:12.794Z,57.29
2023-04-05T14:22:42.644Z,57.26
2023-04-05T14:25:13.014Z,57.40
2023-04-05T14:27:45.646Z,57.46
2023-04-05T14:30:16.732Z,57.56
2023-04-05T14:32:47.262Z,57.38
2023-04-05T14:35:17.106Z,57.05
2023-04-05T14:37:46.975Z,56.84
2023-04-05T14:40:17.141Z,56.62
2023-04-05T14:42:50.397Z,56.46
2023-04-05T14:45:21.064Z,56.42
2023-04-05T14:47:51.052Z,56.53
2023-04-05T14:50:21.052Z,56.43
2023-04-05T14:52:51.177Z,56.44
2023-04-05T14:55:21.318Z,56.56
2023-04-05T14:57:53.998Z,56.57
2023-04-05T15:00:24.261Z,56.43
2023-04-05T15:02:59.261Z,56.17
2023-04-05T15:05:29.387Z,56.05
2023-04-05T15:07:59.221Z,55.74
2023-04-05T15:10:29.879Z,55.66
2023-04-05T15:13:02.452Z,55.56
2023-04-05T15:15:32.965Z,55.49
2023-04-05T15:18:02.805Z,55.59
2023-04-05T15:20:33.563Z,55.68
2023-04-05T15:23:03.721Z,55.82
2023-04-05T15:25:33.578Z,55.74
2023-04-05T15:28:07.027Z,55.90
2023-04-05T15:30:37.830Z,55.96
2023-04-05T15:33:07.797Z,56.00
2023-04-05T15:35:38.950Z,55.90
2023-04-05T15:38:08.794Z,55.83
2023-04-05T15:40:39.969Z,55.89
2023-04-05T15:43:12.805Z,55.72
2023-04-05T15:45:43.124Z,55.71
2023-04-05T15:48:14.030Z,55.50
2023-04-05T15:50:44.513Z,55.40
2023-04-05T15:53:15.906Z,55.21
2023-04-05T15:55:45.887Z,55.16
2023-04-05T15:58:18.252Z,55.05
2023-04-05T16:00:48.121Z,55.11
2023-04-05T16:03:18.236Z,55.16
2023-04-05T16:05:51.117Z,55.34
2023-04-05T16:08:20.973Z,55.20
2023-04-05T16:10:50.964Z,55.24
2023-04-05T16:13:23.449Z,55.16
2023-04-05T16:15:55.002Z,55.25
2023-04-05T16:18:26.212Z,55.26
2023-04-05T16:20:56.091Z,55.06
2023-04-05T16:23:25.943Z,55.06
2023-04-05T16:25:55.971Z,55.06
2023-04-05T16:28:28.404Z,55.01
2023-04-05T16:31:00.231Z,55.13
2023-04-05T16:33:30.138Z,55.14
2023-04-05T16:36:00.100Z,55.25
2023-04-05T16:38:30.017Z,55.37
2023-04-05T16:41:02.477Z,55.32
2023-04-05T16:43:35.259Z,55.46
2023-04-05T16:46:05.192Z,55.41
2023-04-05T16:48:35.141Z,55.36
2023-04-05T16:51:06.960Z,55.27
2023-04-05T16:53:37.166Z,55.25
2023-04-05T16:56:07.260Z,55.45
2023-04-05T16:58:39.653Z,55.58
2023-04-05T17:01:09.687Z,55.63
2023-04-05T17:03:47.266Z,55.77
2023-04-05T17:06:17.531Z,55.91
2023-04-05T17:08:47.368Z,56.13
2023-04-05T17:11:20.135Z,56.10
2023-04-05T17:13:52.629Z,56.04
2023-04-05T17:16:22.703Z,56.43
2023-04-05T17:18:52.675Z,56.54
2023-04-05T17:21:23.152Z,56.66
2023-04-05T17:23:53.070Z,56.73
2023-04-05T17:26:23.439Z,56.81
2023-04-05T17:28:55.934Z,56.90
2023-04-05T17:31:25.854Z,57.00
2023-04-05T17:33:55.709Z,57.16
2023-04-05T17:36:26.332Z,57.36
2023-04-05T17:38:56.163Z,57.49
2023-04-05T17:41:27.643Z,57.65
2023-04-05T17:44:00.185Z,57.76
2023-04-05T17:46:40.196Z,57.94
2023-04-05T17:49:14.407Z,57.99
2023-04-05T17:51:44.268Z,58.22
2023-04-05T17:54:17.278Z,58.44
2023-04-05T17:56:47.278Z,58.86
2023-04-05T17:59:19.850Z,59.40
2023-04-05T18:01:54.008Z,59.87
2023-04-05T18:04:24.902Z,60.47
2023-04-05T18:06:54.842Z,60.97
2023-04-05T18:09:24.648Z,61.49
2023-04-05T18:11:54.451Z,62.05
2023-04-05T18:14:27.046Z,62.41
2023-04-05T18:16:56.916Z,62.94
2023-04-05T18:19:26.896Z,63.44
2023-04-05T18:21:56.690Z,63.89
2023-04-05T18:24:26.666Z,64.30
2023-04-05T18:26:56.629Z,64.64
2023-04-05T18:29:30.941Z,65.07
2023-04-05T18:32:00.908Z,65.47
2023-04-05T18:34:30.989Z,65.80
2023-04-05T18:37:00.904Z,66.22
2023-04-05T18:39:31.144Z,66.53
2023-04-05T18:42:01.184Z,66.85
2023-04-05T18:44:33.928Z,67.12
2023-04-05T18:47:05.066Z,67.42
2023-04-05T18:49:34.951Z,67.64
2023-04-05T18:52:04.813Z,68.04
2023-04-05T18:54:38.538Z,68.19
2023-04-05T18:57:10.116Z,68.51
2023-04-05T18:59:42.586Z,68.84
2023-04-05T19:02:15.207Z,69.03
2023-04-05T19:04:45.079Z,69.16
2023-04-05T19:07:14.907Z,69.45
2023-04-05T19:09:45.129Z,69.63
2023-04-05T19:12:14.936Z,69.87
2023-04-05T19:14:49.907Z,70.11
2023-04-05T19:17:19.741Z,70.38
2023-04-05T19:19:49.569Z,70.58
2023-04-05T19:22:19.370Z,70.75
2023-04-05T19:24:49.171Z,70.89
2023-04-05T19:27:20.530Z,71.10
2023-04-05T19:29:52.998Z,71.34
2023-04-05T19:32:23.778Z,71.52
2023-04-05T19:34:53.679Z,71.67
2023-04-05T19:37:23.538Z,71.85
2023-04-05T19:39:57.570Z,72.05
2023-04-05T19:42:27.372Z,72.25
2023-04-05T19:45:01.251Z,72.35
2023-04-05T19:47:31.662Z,72.67
2023-04-05T19:50:12.758Z,72.84
2023-04-05T19:52:45.621Z,72.93
2023-04-05T19:55:31.386Z,73.09
2023-04-05T19:58:01.860Z,73.28
2023-04-05T20:00:40.578Z,73.41
2023-04-05T20:03:30.531Z,73.53
2023-04-05T20:06:11.868Z,73.85
2023-04-05T20:08:43.459Z,73.92
2023-04-05T20:11:15.685Z,74.04
2023-04-05T20:13:49.625Z,74.19
2023-04-05T20:16:28.518Z,74.34
2023-04-05T20:19:00.836Z,74.56
2023-04-05T20:21:31.172Z,74.65
2023-04-05T20:24:02.183Z,74.82
2023-04-05T20:26:33.085Z,74.92
2023-04-05T20:29:04.294Z,75.02
2023-04-05T20:31:39.219Z,75.20
2023-04-05T20:34:13.500Z,75.31
2023-04-05T20:36:50.996Z,75.48
2023-04-05T20:39:23.777Z,75.57
2023-04-05T20:41:53.651Z,75.71
2023-04-05T20:44:23.480Z,75.81
2023-04-05T20:46:58.374Z,75.95
2023-04-05T20:49:28.382Z,76.13
2023-04-05T20:51:58.234Z,76.26
2023-04-05T20:54:29.752Z,76.44
2023-04-05T20:56:59.588Z,76.62
2023-04-05T20:59:29.447Z,76.61
2023-04-05T21:02:01.964Z,76.91
2023-04-05T21:04:31.873Z,76.98
2023-04-05T21:07:01.943Z,77.15
2023-04-05T21:09:31.821Z,77.27
2023-04-05T21:12:01.664Z,77.38
2023-04-05T21:14:31.507Z,77.51
2023-04-05T21:17:04.415Z,77.68
2023-04-05T21:19:34.297Z,77.78
2023-04-05T21:22:04.165Z,77.88
2023-04-05T21:24:33.982Z,78.01
2023-04-05T21:27:03.772Z,78.18
2023-04-05T21:29:33.592Z,78.28
2023-04-05T21:32:06.093Z,78.29
2023-04-05T21:34:35.918Z,78.34
2023-04-05T21:37:05.760Z,78.58
2023-04-05T21:39:35.713Z,78.69
2023-04-05T21:42:05.638Z,78.81
2023-04-05T21:44:35.489Z,78.81
2023-04-05T21:47:08.068Z,78.91
2023-04-05T21:49:37.980Z,79.06
2023-04-05T21:52:08.055Z,79.12
2023-04-05T21:54:37.863Z,79.16
2023-04-05T21:57:07.661Z,79.28
2023-04-05T21:59:37.601Z,79.30
2023-04-05T22:02:12.348Z,79.38
2023-04-05T22:04:42.504Z,79.47
2023-04-05T22:07:12.468Z,79.53
2023-04-05T22:09:45.369Z,79.62
2023-04-05T22:12:15.564Z,79.66
2023-04-05T22:14:45.410Z,79.75
2023-04-05T22:17:18.681Z,79.86
2023-04-05T22:19:51.112Z,79.87
2023-04-05T22:22:22.738Z,79.90
2023-04-05T22:24:52.551Z,79.94
2023-04-05T22:27:22.402Z,79.82
2023-04-05T22:29:54.548Z,79.97
2023-04-05T22:32:28.596Z,79.96
2023-04-05T22:34:58.684Z,80.16
2023-04-05T22:37:35.763Z,80.07
2023-04-05T22:40:06.530Z,80.25
2023-04-05T22:42:37.142Z,80.34
2023-04-05T22:45:07.656Z,80.32
2023-04-05T22:47:40.114Z,80.41
2023-04-05T22:50:11.270Z,80.42
2023-04-05T22:52:41.434Z,80.42
2023-04-05T22:55:12.297Z,80.52
2023-04-05T22:57:42.261Z,80.55
2023-04-05T23:00:13.256Z,80.53
2023-04-05T23:02:46.646Z,80.70
2023-04-05T23:05:16.590Z,80.55
2023-04-05T23:07:46.393Z,80.69
2023-04-05T23:10:16.492Z,80.78
2023-04-05T23:12:47.386Z,80.81
2023-04-05T23:15:17.629Z,80.89
2023-04-05T23:17:50.599Z,80.99
2023-04-05T23:20:20.575Z,81.02
2023-04-05T23:22:50.462Z,81.05
2023-04-05T23:25:20.273Z,81.10
2023-04-05T23:27:50.102Z,81.14
2023-04-05T23:30:20.018Z,81.27
2023-04-05T23:32:52.744Z,81.20
2023-04-05T23:35:22.582Z,81.29
2023-04-05T23:37:52.403Z,81.25
2023-04-05T23:40:22.451Z,81.37
2023-04-05T23:42:53.535Z,81.27
2023-04-05T23:45:23.392Z,81.45
2023-04-05T23:47:55.881Z,81.47
2023-04-05T23:50:26.514Z,81.63
2023-04-05T23:52:56.720Z,81.69
2023-04-05T23:55:26.695Z,81.57
2023-04-05T23:57:58.030Z,81.83
